createdAt,value
2022-09-16T00:00:51.873Z,100158.91
2022-09-16T00:03:18.804Z,100159.56
2022-09-16T00:05:50.675Z,100160.22
2022-09-16T00:08:18.694Z,100158.13
2022-09-16T00:10:45.501Z,100154.59
2022-09-16T00:13:13.207Z,100157.75
2022-09-16T00:15:44.432Z,100158.56
2022-09-16T00:18:12.256Z,100153.34
2022-09-16T00:20:44.628Z,100164.78
2022-09-16T00:23:11.028Z,100158.75
2022-09-16T00:25:37.453Z,100159.78
2022-09-16T00:28:04.213Z,100160.81
2022-09-16T00:30:30.639Z,100154.16
2022-09-16T00:32:57.050Z,100160.97
2022-09-16T00:35:23.601Z,100157.84
2022-09-16T00:37:50.037Z,100163.84
2022-09-16T00:40:16.581Z,100169.84
2022-09-16T00:42:43.194Z,100174.00
2022-09-16T00:45:22.403Z,100169.19
2022-09-16T00:47:57.405Z,100176.84
2022-09-16T00:50:31.094Z,100170.16
2022-09-16T00:52:59.883Z,100169.91
2022-09-16T00:55:35.950Z,100170.13
2022-09-16T00:58:34.727Z,100165.09
2022-09-16T01:01:03.736Z,100174.63
2022-09-16T01:03:31.596Z,100165.25
2022-09-16T01:05:58.025Z,100165.66
2022-09-16T01:08:25.127Z,100163.50
2022-09-16T01:10:52.274Z,100165.78
2022-09-16T01:13:19.806Z,100161.81
2022-09-16T01:16:10.904Z,100163.66
2022-09-16T01:18:48.497Z,100165.91
2022-09-16T01:21:36.533Z,100169.00
2022-09-16T01:24:21.823Z,100172.09
2022-09-16T01:27:12.632Z,100178.50
2022-09-16T01:30:13.861Z,100182.25
2022-09-16T01:33:04.969Z,100171.47
2022-09-16T01:36:03.567Z,100170.63
2022-09-16T01:38:45.054Z,100169.59
2022-09-16T01:42:01.379Z,100168.53
2022-09-16T01:44:33.745Z,100165.84
2022-09-16T01:47:08.581Z,100169.41
2022-09-16T01:49:46.571Z,100162.31
2022-09-16T01:52:35.955Z,100161.50
2022-09-16T01:55:07.307Z,100162.31
2022-09-16T01:57:51.984Z,100160.03
2022-09-16T02:00:19.312Z,100157.53
2022-09-16T02:02:48.994Z,100162.06
2022-09-16T02:05:22.938Z,100160.59
2022-09-16T02:07:54.891Z,100159.97
2022-09-16T02:10:43.814Z,100163.50
2022-09-16T02:13:29.595Z,100164.50
2022-09-16T02:16:03.598Z,100168.69
2022-09-16T02:18:35.129Z,100159.59
2022-09-16T02:21:05.329Z,100170.16
2022-09-16T02:23:40.018Z,100165.22
2022-09-16T02:26:11.854Z,100173.75
2022-09-16T02:28:41.570Z,100166.31
2022-09-16T02:31:09.807Z,100160.69
2022-09-16T02:33:47.934Z,100162.00
2022-09-16T02:36:20.966Z,100156.19
2022-09-16T02:38:53.866Z,100156.63
2022-09-16T02:41:20.507Z,100162.03
2022-09-16T02:43:46.913Z,100164.53
2022-09-16T02:46:20.028Z,100167.88
2022-09-16T02:49:45.223Z,100155.03
2022-09-16T02:52:14.998Z,100146.94
2022-09-16T02:55:06.024Z,100138.66
2022-09-16T02:57:32.992Z,100145.06
2022-09-16T02:59:59.514Z,100143.38
2022-09-16T03:02:26.120Z,100147.13
2022-09-16T03:04:52.600Z,100153.34
2022-09-16T03:07:19.044Z,100154.19
2022-09-16T03:09:48.104Z,100155.03
2022-09-16T03:12:41.906Z,100153.16
2022-09-16T03:15:37.008Z,100154.19
2022-09-16T03:18:09.992Z,100145.25
2022-09-16T03:20:52.094Z,100152.53
2022-09-16T03:23:36.046Z,100155.03
2022-09-16T03:26:12.923Z,100152.34
2022-09-16T03:29:04.307Z,100155.03
2022-09-16T03:31:34.387Z,100150.47
2022-09-16T03:34:20.694Z,100152.16
2022-09-16T03:36:58.840Z,100170.19
2022-09-16T03:39:25.545Z,100162.50
2022-09-16T03:41:52.249Z,100154.56
2022-09-16T03:44:18.847Z,100146.69
2022-09-16T03:46:45.310Z,100145.00
2022-09-16T03:49:12.479Z,100133.78
2022-09-16T03:51:38.916Z,100133.13
2022-09-16T03:54:05.475Z,100136.06
2022-09-16T03:56:31.855Z,100142.66
2022-09-16T03:58:58.626Z,100141.00
2022-09-16T04:01:25.157Z,100142.84
2022-09-16T04:03:52.550Z,100143.03
2022-09-16T04:06:19.096Z,100142.44
2022-09-16T04:08:45.528Z,100147.19
2022-09-16T04:11:11.955Z,100143.81
2022-09-16T04:13:38.373Z,100137.78
2022-09-16T04:16:05.169Z,100140.69
2022-09-16T04:18:32.985Z,100147.31
2022-09-16T04:21:00.997Z,100143.97
2022-09-16T04:23:29.175Z,100153.09
2022-09-16T04:25:57.253Z,100152.47
2022-09-16T04:28:23.742Z,100151.63
2022-09-16T04:30:50.348Z,100138.97
2022-09-16T04:33:16.784Z,100136.28
2022-09-16T04:35:43.244Z,100135.44
2022-09-16T04:38:09.701Z,100136.28
2022-09-16T04:40:36.242Z,100130.88
2022-09-16T04:43:02.683Z,100128.19
2022-09-16T04:45:29.135Z,100137.28
2022-09-16T04:47:57.585Z,100128.38
2022-09-16T04:50:27.319Z,100132.94
2022-09-16T04:52:53.727Z,100133.97
2022-09-16T04:55:22.985Z,100131.47
2022-09-16T04:57:50.199Z,100129.81
2022-09-16T05:00:16.882Z,100136.41
2022-09-16T05:02:46.750Z,100132.25
2022-09-16T05:05:13.350Z,100137.16
2022-09-16T05:07:39.776Z,100143.78
2022-09-16T05:10:06.768Z,100151.44
2022-09-16T05:12:33.201Z,100139.16
2022-09-16T05:14:59.607Z,100139.56
2022-09-16T05:17:49.238Z,100140.78
2022-09-16T05:20:12.622Z,100147.84
2022-09-16T05:22:39.203Z,100141.19
2022-09-16T05:25:06.286Z,100145.28
2022-09-16T05:27:34.023Z,100151.88
2022-09-16T05:30:00.464Z,100142.31
2022-09-16T05:32:27.556Z,100155.16
2022-09-16T05:34:54.794Z,100156.81
2022-09-16T05:37:21.252Z,100156.81
2022-09-16T05:39:47.664Z,100150.59
2022-09-16T05:42:14.091Z,100146.03
2022-09-16T05:44:40.500Z,100156.00
2022-09-16T05:47:06.930Z,100139.19
2022-09-16T05:49:33.302Z,100153.47
2022-09-16T05:51:59.678Z,100150.13
2022-09-16T05:54:26.139Z,100147.66
2022-09-16T05:56:52.874Z,100149.53
2022-09-16T05:59:19.490Z,100147.66
2022-09-16T06:01:46.012Z,100148.47
2022-09-16T06:04:14.235Z,100146.44
2022-09-16T06:06:45.748Z,100155.16
2022-09-16T06:09:21.339Z,100151.44
2022-09-16T06:11:50.352Z,100159.31
2022-09-16T06:14:18.662Z,100155.63
2022-09-16T06:16:46.097Z,100159.78
2022-09-16T06:19:15.130Z,100158.75
2022-09-16T06:21:43.719Z,100149.44
2022-09-16T06:24:11.365Z,100151.56
2022-09-16T06:26:39.549Z,100158.25
2022-09-16T06:29:07.166Z,100151.63
2022-09-16T06:31:34.654Z,100151.69
2022-09-16T06:34:01.033Z,100150.47
2022-09-16T06:36:29.846Z,100151.56
2022-09-16T06:38:56.747Z,100149.28
2022-09-16T06:41:23.645Z,100141.47
2022-09-16T06:43:51.842Z,100153.53
2022-09-16T06:46:23.789Z,100137.59
2022-09-16T06:48:53.407Z,100141.56
2022-09-16T06:51:23.257Z,100132.88
2022-09-16T06:53:50.745Z,100136.06
2022-09-16T06:56:19.815Z,100132.13
2022-09-16T06:58:49.067Z,100128.81
2022-09-16T07:01:18.602Z,100139.03
2022-09-16T07:03:47.227Z,100143.88
2022-09-16T07:06:15.255Z,100138.91
2022-09-16T07:08:42.683Z,100140.81
2022-09-16T07:11:29.327Z,100139.81
2022-09-16T07:13:55.766Z,100147.34
2022-09-16T07:16:24.544Z,100143.81
2022-09-16T07:19:01.159Z,100151.78
2022-09-16T07:21:30.152Z,100149.34
2022-09-16T07:23:58.789Z,100150.00
2022-09-16T07:26:28.162Z,100157.09
2022-09-16T07:28:55.578Z,100151.72
2022-09-16T07:31:25.463Z,100149.06
2022-09-16T07:33:53.868Z,100153.44
2022-09-16T07:36:23.257Z,100154.09
2022-09-16T07:38:50.475Z,100153.09
2022-09-16T07:41:19.099Z,100144.97
2022-09-16T07:43:46.985Z,100155.63
2022-09-16T07:46:18.825Z,100150.66
2022-09-16T07:48:47.231Z,100161.31
2022-09-16T07:51:16.502Z,100172.56
2022-09-16T07:53:44.254Z,100156.97
2022-09-16T07:56:18.727Z,100164.66
2022-09-16T07:58:46.518Z,100160.09
2022-09-16T08:01:15.289Z,100162.81
2022-09-16T08:03:42.867Z,100160.94
2022-09-16T08:06:12.806Z,100155.72
2022-09-16T08:08:39.839Z,100167.63
2022-09-16T08:11:09.961Z,100163.44
2022-09-16T08:13:42.228Z,100168.22
2022-09-16T08:16:13.598Z,100164.03
2022-09-16T08:18:40.884Z,100166.56
2022-09-16T08:21:12.498Z,100167.81
2022-09-16T08:23:39.721Z,100165.28
2022-09-16T08:26:08.492Z,100169.06
2022-09-16T08:28:45.199Z,100163.63
2022-09-16T08:31:21.309Z,100174.69
2022-09-16T08:33:48.190Z,100171.09
2022-09-16T08:36:21.059Z,100165.66
2022-09-16T08:38:51.245Z,100166.28
2022-09-16T08:41:39.540Z,100162.25
2022-09-16T08:44:32.021Z,100167.88
2022-09-16T08:47:17.242Z,100168.25
2022-09-16T08:49:46.813Z,100162.13
2022-09-16T08:52:35.765Z,100164.78
2022-09-16T08:55:15.544Z,100167.44
2022-09-16T08:58:08.157Z,100150.69
2022-09-16T09:00:34.861Z,100144.75
2022-09-16T09:03:18.744Z,100170.34
2022-09-16T09:05:52.001Z,100175.53
2022-09-16T09:08:34.753Z,100161.06
2022-09-16T09:11:13.254Z,100164.78
2022-09-16T09:13:59.576Z,100169.78
2022-09-16T09:16:32.557Z,100163.31
2022-09-16T09:19:13.526Z,100175.16
2022-09-16T09:22:13.794Z,100160.47
2022-09-16T09:25:07.655Z,100157.00
2022-09-16T09:27:36.963Z,100150.00
2022-09-16T09:30:17.394Z,100150.72
2022-09-16T09:32:52.984Z,100158.16
2022-09-16T09:35:25.471Z,100152.16
2022-09-16T09:38:05.151Z,100153.75
2022-09-16T09:41:07.027Z,100159.50
2022-09-16T09:43:45.329Z,100161.28
2022-09-16T09:46:26.404Z,100163.94
2022-09-16T09:49:04.293Z,100150.09
2022-09-16T09:51:36.067Z,100144.22
2022-09-16T09:54:12.890Z,100146.69
2022-09-16T09:56:45.531Z,100135.59
2022-09-16T09:59:30.808Z,100136.66
2022-09-16T10:02:03.736Z,100141.03
2022-09-16T10:04:38.226Z,100141.03
2022-09-16T10:07:05.819Z,100134.78
2022-09-16T10:09:33.725Z,100132.28
2022-09-16T10:12:01.147Z,100107.78
2022-09-16T10:14:37.721Z,100125.75
2022-09-16T10:17:17.057Z,100128.63
2022-09-16T10:19:57.740Z,100126.28
2022-09-16T10:22:30.311Z,100124.75
2022-09-16T10:24:59.207Z,100115.91
2022-09-16T10:27:29.604Z,100130.28
2022-09-16T10:30:17.269Z,100110.91
2022-09-16T10:33:07.754Z,100117.66
2022-09-16T10:35:39.278Z,100103.28
2022-09-16T10:38:46.218Z,100121.50
2022-09-16T10:41:32.544Z,100125.53
2022-09-16T10:44:01.288Z,100128.03
2022-09-16T10:47:02.389Z,100106.47
2022-09-16T10:49:53.850Z,100101.97
2022-09-16T10:52:24.968Z,100093.06
2022-09-16T10:54:51.518Z,100081.22
2022-09-16T10:57:30.516Z,100097.94
2022-09-16T11:00:18.294Z,100088.00
2022-09-16T11:03:06.670Z,100089.09
2022-09-16T11:06:00.715Z,100080.44
2022-09-16T11:08:54.843Z,100093.81
2022-09-16T11:11:46.305Z,100095.75
2022-09-16T11:14:24.330Z,100093.84
2022-09-16T11:17:28.749Z,100128.78
2022-09-16T11:20:04.241Z,100146.41
2022-09-16T11:22:47.610Z,100139.91
2022-09-16T11:25:23.166Z,100145.38
2022-09-16T11:28:29.718Z,100151.59
2022-09-16T11:31:08.255Z,100144.16
2022-09-16T11:33:55.755Z,100156.50
2022-09-16T11:36:37.802Z,100173.88
2022-09-16T11:39:46.489Z,100176.13
2022-09-16T11:42:32.357Z,100170.97
2022-09-16T11:45:41.898Z,100181.44
2022-09-16T11:48:48.054Z,100165.09
2022-09-16T11:51:27.243Z,100159.56
2022-09-16T11:54:15.596Z,100157.00
2022-09-16T11:56:50.447Z,100153.69
2022-09-16T11:59:53.698Z,100142.28
2022-09-16T12:02:27.525Z,100139.44
2022-09-16T12:05:02.746Z,100132.84
2022-09-16T12:07:29.446Z,100137.47
2022-09-16T12:10:05.939Z,100125.69
2022-09-16T12:12:37.998Z,100121.81
2022-09-16T12:15:37.247Z,100112.72
2022-09-16T12:18:13.325Z,100102.63
2022-09-16T12:20:46.908Z,100101.81
2022-09-16T12:23:30.715Z,100108.06
2022-09-16T12:26:09.987Z,100092.84
2022-09-16T12:28:56.658Z,100086.56
2022-09-16T12:31:48.811Z,100103.22
2022-09-16T12:34:22.311Z,100099.25
2022-09-16T12:36:55.918Z,100093.59
2022-09-16T12:39:22.326Z,100084.53
2022-09-16T12:42:10.374Z,100088.88
2022-09-16T12:45:02.365Z,100086.09
2022-09-16T12:47:50.664Z,100076.22
2022-09-16T12:50:48.698Z,100103.25
2022-09-16T12:54:05.927Z,100098.78
2022-09-16T12:56:32.309Z,100088.91
2022-09-16T12:59:01.399Z,100090.09
2022-09-16T13:01:35.217Z,100105.88
2022-09-16T13:04:10.682Z,100072.78
2022-09-16T13:06:45.074Z,100078.19
2022-09-16T13:09:21.492Z,100065.13
2022-09-16T13:12:44.927Z,100066.13
2022-09-16T13:15:31.731Z,100063.09
2022-09-16T13:18:19.398Z,100061.97
2022-09-16T13:20:54.496Z,100062.75
2022-09-16T13:23:24.917Z,100064.34
2022-09-16T13:25:58.181Z,100068.84
2022-09-16T13:28:33.458Z,100062.78
2022-09-16T13:31:20.184Z,100081.13
2022-09-16T13:33:59.001Z,100060.00
2022-09-16T13:36:25.486Z,100057.88
2022-09-16T13:38:54.652Z,100069.13
2022-09-16T13:41:31.768Z,100063.84
2022-09-16T13:43:59.287Z,100046.00
2022-09-16T13:46:37.276Z,100059.53
2022-09-16T13:49:04.279Z,100043.81
2022-09-16T13:51:36.125Z,100054.38
2022-09-16T13:54:04.366Z,100053.22
2022-09-16T13:57:03.246Z,100065.78
2022-09-16T13:59:44.591Z,100070.44
2022-09-16T14:02:11.032Z,100050.59
2022-09-16T14:04:56.894Z,100057.16
2022-09-16T14:07:42.250Z,100056.47
2022-09-16T14:10:35.843Z,100067.97
2022-09-16T14:13:18.722Z,100064.63
2022-09-16T14:15:58.215Z,100069.94
2022-09-16T14:18:30.648Z,100062.09
2022-09-16T14:21:22.511Z,100068.00
2022-09-16T14:23:48.998Z,100079.31
2022-09-16T14:26:20.927Z,100085.22
2022-09-16T14:28:47.846Z,100065.84
2022-09-16T14:31:31.445Z,100092.28
2022-09-16T14:34:07.475Z,100085.75
2022-09-16T14:36:36.233Z,100077.69
2022-09-16T14:39:08.991Z,100066.38
2022-09-16T14:41:43.264Z,100082.47
2022-09-16T14:44:18.759Z,100079.34
2022-09-16T14:46:49.876Z,100080.28
2022-09-16T14:49:18.033Z,100072.44
2022-09-16T14:51:49.385Z,100075.00
2022-09-16T14:54:18.636Z,100060.19
2022-09-16T14:57:02.470Z,100058.28
2022-09-16T14:59:37.634Z,100067.03
2022-09-16T15:02:12.230Z,100059.50
2022-09-16T15:04:40.886Z,100062.59
2022-09-16T15:07:15.110Z,100059.22
2022-09-16T15:09:53.535Z,100065.25
2022-09-16T15:12:26.042Z,100058.75
2022-09-16T15:14:52.924Z,100054.59
2022-09-16T15:17:21.837Z,100072.78
2022-09-16T15:19:57.954Z,100052.94
2022-09-16T15:22:25.475Z,100040.88
2022-09-16T15:24:55.783Z,100055.28
2022-09-16T15:27:24.789Z,100061.31
2022-09-16T15:29:56.756Z,100046.44
2022-09-16T15:32:27.495Z,100054.75
2022-09-16T15:35:10.446Z,100056.16
2022-09-16T15:37:37.366Z,100040.84
2022-09-16T15:40:10.992Z,100041.13
2022-09-16T15:42:37.962Z,100037.47
2022-09-16T15:45:17.276Z,100048.66
2022-09-16T15:48:00.669Z,100046.69
2022-09-16T15:50:30.978Z,100049.50
2022-09-16T15:53:02.854Z,100040.66
2022-09-16T15:55:37.499Z,100038.34
2022-09-16T15:58:18.958Z,100047.66
2022-09-16T16:01:17.777Z,100044.94
2022-09-16T16:03:50.112Z,100058.81
2022-09-16T16:06:16.649Z,100071.19
2022-09-16T16:08:46.948Z,100068.53
2022-09-16T16:11:23.519Z,100082.78
2022-09-16T16:13:53.190Z,100075.91
2022-09-16T16:16:19.848Z,100078.44
2022-09-16T16:18:46.514Z,100074.97
2022-09-16T16:21:16.114Z,100076.19
2022-09-16T16:23:43.520Z,100080.34
2022-09-16T16:26:11.427Z,100094.41
2022-09-16T16:28:38.638Z,100090.97
2022-09-16T16:31:13.120Z,100087.06
2022-09-16T16:33:45.213Z,100084.59
2022-09-16T16:36:16.849Z,100091.72
2022-09-16T16:38:43.678Z,100092.38
2022-09-16T16:41:12.165Z,100091.97
2022-09-16T16:43:39.524Z,100095.94
2022-09-16T16:46:06.102Z,100084.47
2022-09-16T16:48:32.720Z,100074.69
2022-09-16T16:51:02.314Z,100080.13
2022-09-16T16:53:28.986Z,100079.50
2022-09-16T16:56:02.380Z,100075.97
2022-09-16T16:58:35.970Z,100089.72
2022-09-16T17:01:16.413Z,100090.56
2022-09-16T17:03:49.225Z,100088.06
2022-09-16T17:06:17.347Z,100091.84
2022-09-16T17:08:43.762Z,100085.78
2022-09-16T17:11:16.159Z,100097.44
2022-09-16T17:13:44.955Z,100093.09
2022-09-16T17:16:14.018Z,100086.00
2022-09-16T17:18:41.913Z,100087.88
2022-09-16T17:21:17.570Z,100086.84
2022-09-16T17:23:44.511Z,100090.59
2022-09-16T17:26:11.957Z,100090.59
2022-09-16T17:28:39.753Z,100087.88
2022-09-16T17:31:24.439Z,100092.25
2022-09-16T17:33:55.942Z,100100.59
2022-09-16T17:36:24.406Z,100094.34
2022-09-16T17:39:16.815Z,100099.78
2022-09-16T17:41:45.566Z,100101.84
2022-09-16T17:44:13.755Z,100107.28
2022-09-16T17:46:42.006Z,100106.66
2022-09-16T17:49:13.825Z,100121.25
2022-09-16T17:51:40.717Z,100117.31
2022-09-16T17:54:08.682Z,100116.91
2022-09-16T17:56:35.342Z,100117.53
2022-09-16T17:59:01.849Z,100120.69
2022-09-16T18:01:28.474Z,100120.50
2022-09-16T18:03:56.068Z,100124.44
2022-09-16T18:06:28.420Z,100112.41
2022-09-16T18:08:55.440Z,100117.34
2022-09-16T18:11:22.003Z,100114.25
2022-09-16T18:13:48.908Z,100117.38
2022-09-16T18:16:18.390Z,100121.13
2022-09-16T18:18:45.962Z,100124.25
2022-09-16T18:21:15.693Z,100125.50
2022-09-16T18:23:42.526Z,100121.56
2022-09-16T18:26:12.569Z,100129.06
2022-09-16T18:29:05.674Z,100129.69
2022-09-16T18:31:32.994Z,100133.84
2022-09-16T18:33:59.514Z,100130.97
2022-09-16T18:36:26.993Z,100139.06
2022-09-16T18:38:54.762Z,100148.25
2022-09-16T18:41:24.214Z,100149.28
2022-09-16T18:43:56.727Z,100141.38
2022-09-16T18:46:26.882Z,100137.41
2022-09-16T18:48:54.483Z,100146.75
2022-09-16T18:51:25.354Z,100146.56
2022-09-16T18:53:55.538Z,100150.66
2022-09-16T18:56:24.778Z,100165.22
2022-09-16T18:59:17.302Z,100151.84
2022-09-16T19:01:39.973Z,100157.44
2022-09-16T19:04:09.687Z,100157.63
2022-09-16T19:06:41.735Z,100163.03
2022-09-16T19:09:12.032Z,100162.16
2022-09-16T19:11:39.700Z,100161.50
2022-09-16T19:14:12.412Z,100160.44
2022-09-16T19:16:40.498Z,100165.78
2022-09-16T19:19:08.760Z,100163.91
2022-09-16T19:21:45.068Z,100164.50
2022-09-16T19:24:17.747Z,100174.41
2022-09-16T19:26:46.127Z,100164.41
2022-09-16T19:29:13.887Z,100171.22
2022-09-16T19:31:42.236Z,100176.22
2022-09-16T19:34:09.134Z,100160.59
2022-09-16T19:36:36.953Z,100162.88
2022-09-16T19:39:05.278Z,100165.97
2022-09-16T19:41:33.470Z,100162.41
2022-09-16T19:44:02.494Z,100156.38
2022-09-16T19:46:32.357Z,100161.78
2022-09-16T19:48:59.195Z,100165.50
2022-09-16T19:51:25.923Z,100168.84
2022-09-16T19:53:53.746Z,100169.88
2022-09-16T19:56:26.079Z,100172.59
2022-09-16T19:58:53.902Z,100170.06
2022-09-16T20:01:24.791Z,100169.44
2022-09-16T20:03:51.918Z,100172.34
2022-09-16T20:06:24.865Z,100178.56
2022-09-16T20:08:59.931Z,100178.75
2022-09-16T20:11:29.340Z,100183.53
2022-09-16T20:13:59.138Z,100182.69
2022-09-16T20:16:28.285Z,100195.72
2022-09-16T20:18:55.050Z,100187.19
2022-09-16T20:21:25.531Z,100190.06
2022-09-16T20:23:53.414Z,100196.03
2022-09-16T20:26:21.622Z,100196.44
2022-09-16T20:28:52.718Z,100205.56
2022-09-16T20:31:24.834Z,100217.59
2022-09-16T20:33:52.131Z,100212.56
2022-09-16T20:36:23.897Z,100207.56
2022-09-16T20:38:51.518Z,100217.91
2022-09-16T20:41:27.812Z,100219.13
2022-09-16T20:43:54.328Z,100213.28
2022-09-16T20:46:35.418Z,100228.63
2022-09-16T20:49:05.282Z,100213.19
2022-09-16T20:51:33.494Z,100215.28
2022-09-16T20:54:07.510Z,100220.22
2022-09-16T20:56:38.261Z,100220.41
2022-09-16T20:59:07.474Z,100219.75
2022-09-16T21:01:34.771Z,100219.94
2022-09-16T21:04:04.729Z,100214.75
2022-09-16T21:06:32.606Z,100218.47
2022-09-16T21:09:01.853Z,100219.28
2022-09-16T21:11:30.090Z,100230.94
2022-09-16T21:14:01.496Z,100220.16
2022-09-16T21:16:31.864Z,100221.81
2022-09-16T21:19:00.278Z,100221.81
2022-09-16T21:21:28.185Z,100227.22
2022-09-16T21:23:57.693Z,100227.22
2022-09-16T21:26:32.207Z,100227.84
2022-09-16T21:29:04.046Z,100231.38
2022-09-16T21:31:37.185Z,100230.56
2022-09-16T21:34:06.318Z,100226.81
2022-09-16T21:36:33.759Z,100235.94
2022-09-16T21:39:01.447Z,100227.84
2022-09-16T21:41:28.161Z,100225.16
2022-09-16T21:43:56.794Z,100232.22
2022-09-16T21:46:28.864Z,100240.31
2022-09-16T21:48:58.305Z,100244.88
2022-09-16T21:51:24.786Z,100242.34
2022-09-16T21:53:51.318Z,100244.22
2022-09-16T21:56:20.626Z,100245.25
2022-09-16T21:58:48.841Z,100245.44
2022-09-16T22:01:20.861Z,100248.78
2022-09-16T22:03:52.685Z,100249.81
2022-09-16T22:06:19.355Z,100252.53
2022-09-16T22:08:49.110Z,100252.53
2022-09-16T22:11:18.334Z,100245.44
2022-09-16T22:13:45.395Z,100249.16
2022-09-16T22:16:18.460Z,100255.22
2022-09-16T22:18:44.930Z,100254.56
2022-09-16T22:21:14.643Z,100251.66
2022-09-16T22:23:41.352Z,100257.06
2022-09-16T22:26:10.708Z,100249.16
2022-09-16T22:28:38.038Z,100242.09
2022-09-16T22:31:08.337Z,100236.69
2022-09-16T22:33:36.193Z,100240.44
2022-09-16T22:36:06.751Z,100248.34
2022-09-16T22:38:33.483Z,100243.13
2022-09-16T22:41:05.679Z,100230.47
2022-09-16T22:43:40.132Z,100243.13
2022-09-16T22:46:09.041Z,100234.19
2022-09-16T22:48:35.814Z,100250.56
2022-09-16T22:51:03.497Z,100241.47
2022-09-16T22:53:30.802Z,100247.88
2022-09-16T22:55:58.018Z,100260.34
2022-09-16T22:58:25.190Z,100259.31
2022-09-16T23:00:53.073Z,100255.78
2022-09-16T23:03:20.571Z,100245.00
2022-09-16T23:05:55.409Z,100243.94
2022-09-16T23:08:22.349Z,100254.94
2022-09-16T23:10:49.037Z,100258.47
2022-09-16T23:13:15.513Z,100263.03
2022-09-16T23:15:41.957Z,100259.47
2022-09-16T23:18:08.371Z,100254.94
2022-09-16T23:20:35.047Z,100260.34
2022-09-16T23:23:02.041Z,100262.00
2022-09-16T23:25:28.474Z,100262.00
2022-09-16T23:27:55.255Z,100254.75
2022-09-16T23:30:21.863Z,100262.66
2022-09-16T23:32:48.411Z,100254.56
2022-09-16T23:35:14.887Z,100264.31
2022-09-16T23:37:41.800Z,100263.47
2022-09-16T23:40:09.137Z,100261.63
2022-09-16T23:42:35.990Z,100257.06
2022-09-16T23:45:02.954Z,100261.63
2022-09-16T23:47:29.625Z,100253.53
2022-09-16T23:49:56.429Z,100252.69
2022-09-16T23:52:22.811Z,100255.56
2022-09-16T23:54:49.229Z,100264.53
2022-09-16T23:57:15.640Z,100262.00
2022-09-16T23:59:42.051Z,100259.47
